sensor_id;sensor_type;location;lat;lon;timestamp;pressure;altitude;pressure_sealevel;temperature;humidity
77112;BME280;66064;50.226;14.344;2023-06-14T00:02:12;99350.25;;;10.77;92.47
77112;BME280;66064;50.226;14.344;2023-06-14T00:04:38;99362.66;;;10.76;92.66
77112;BME280;66064;50.226;14.344;2023-06-14T00:07:07;99349.34;;;10.70;92.86
77112;BME280;66064;50.226;14.344;2023-06-14T00:09:34;99359.97;;;10.69;92.48
77112;BME280;66064;50.226;14.344;2023-06-14T00:12:01;99356.44;;;10.68;93.13
77112;BME280;66064;50.226;14.344;2023-06-14T00:14:27;99352.84;;;10.63;93.83
77112;BME280;66064;50.226;14.344;2023-06-14T00:16:53;99365.25;;;10.64;96.07
77112;BME280;66064;50.226;14.344;2023-06-14T00:19:24;99368.75;;;10.57;94.83
77112;BME280;66064;50.226;14.344;2023-06-14T00:21:51;99370.50;;;10.54;93.61
77112;BME280;66064;50.226;14.344;2023-06-14T00:24:19;99370.50;;;10.50;92.53
77112;BME280;66064;50.226;14.344;2023-06-14T00:26:45;99354.44;;;10.38;92.64
77112;BME280;66064;50.226;14.344;2023-06-14T00:29:11;99360.63;;;10.40;94.67
77112;BME280;66064;50.226;14.344;2023-06-14T00:31:37;99349.97;;;10.34;95.45
77112;BME280;66064;50.226;14.344;2023-06-14T00:34:03;99351.66;;;10.25;95.57
77112;BME280;66064;50.226;14.344;2023-06-14T00:36:29;99357.91;;;10.31;94.70
77112;BME280;66064;50.226;14.344;2023-06-14T00:38:54;99368.50;;;10.27;94.01
77112;BME280;66064;50.226;14.344;2023-06-14T00:41:21;99362.25;;;10.23;93.01
77112;BME280;66064;50.226;14.344;2023-06-14T00:43:46;99360.47;;;10.19;92.83
77112;BME280;66064;50.226;14.344;2023-06-14T00:46:12;99353.34;;;10.16;94.40
77112;BME280;66064;50.226;14.344;2023-06-14T00:48:39;99357.81;;;10.19;95.98
77112;BME280;66064;50.226;14.344;2023-06-14T00:51:05;99358.59;;;10.12;94.71
77112;BME280;66064;50.226;14.344;2023-06-14T00:53:32;99357.66;;;10.07;94.17
77112;BME280;66064;50.226;14.344;2023-06-14T00:56:02;99364.75;;;10.03;93.42
77112;BME280;66064;50.226;14.344;2023-06-14T00:58:28;99361.09;;;9.95;93.10
77112;BME280;66064;50.226;14.344;2023-06-14T01:00:54;99362.88;;;9.95;94.86
77112;BME280;66064;50.226;14.344;2023-06-14T01:03:20;99364.63;;;9.93;96.34
77112;BME280;66064;50.226;14.344;2023-06-14T01:05:50;99361.97;;;9.90;96.22
77112;BME280;66064;50.226;14.344;2023-06-14T01:08:36;99368.13;;;9.86;95.33
77112;BME280;66064;50.226;14.344;2023-06-14T01:11:12;99352.94;;;9.75;94.64
77112;BME280;66064;50.226;14.344;2023-06-14T01:13:43;99360.06;;;9.79;94.10
77112;BME280;66064;50.226;14.344;2023-06-14T01:16:11;99365.31;;;9.75;94.79
77112;BME280;66064;50.226;14.344;2023-06-14T01:18:38;99357.28;;;9.67;94.24
77112;BME280;66064;50.226;14.344;2023-06-14T01:21:04;99366.13;;;9.66;93.92
77112;BME280;66064;50.226;14.344;2023-06-14T01:23:31;99366.06;;;9.60;93.52
77112;BME280;66064;50.226;14.344;2023-06-14T01:26:01;99366.91;;;9.56;94.09
77112;BME280;66064;50.226;14.344;2023-06-14T01:28:29;99375.72;;;9.52;94.16
77112;BME280;66064;50.226;14.344;2023-06-14T01:31:02;99368.66;;;9.53;94.09
77112;BME280;66064;50.226;14.344;2023-06-14T01:33:32;99374.72;;;9.44;93.36
77112;BME280;66064;50.226;14.344;2023-06-14T01:35:59;99379.13;;;9.40;94.34
77112;BME280;66064;50.226;14.344;2023-06-14T01:38:27;99371.09;;;9.34;93.76
77112;BME280;66064;50.226;14.344;2023-06-14T01:40:55;99380.78;;;9.31;93.38
77112;BME280;66064;50.226;14.344;2023-06-14T01:43:23;99382.47;;;9.26;93.11
77112;BME280;66064;50.226;14.344;2023-06-14T01:45:51;99377.97;;;9.19;92.99
77112;BME280;66064;50.226;14.344;2023-06-14T01:48:18;99379.66;;;9.13;92.81
77112;BME280;66064;50.226;14.344;2023-06-14T01:50:45;99373.34;;;9.04;92.55
77112;BME280;66064;50.226;14.344;2023-06-14T01:53:11;99380.44;;;9.03;93.24
77112;BME280;66064;50.226;14.344;2023-06-14T01:55:37;99372.34;;;8.96;92.95
77112;BME280;66064;50.226;14.344;2023-06-14T01:58:04;99366.03;;;8.86;93.49
77112;BME280;66064;50.226;14.344;2023-06-14T02:00:30;99381.94;;;8.86;93.74
77112;BME280;66064;50.226;14.344;2023-06-14T02:02:56;99379.22;;;8.82;93.49
77112;BME280;66064;50.226;14.344;2023-06-14T02:05:23;99390.69;;;8.79;93.36
77112;BME280;66064;50.226;14.344;2023-06-14T02:07:49;99385.34;;;8.74;93.56
77112;BME280;66064;50.226;14.344;2023-06-14T02:10:16;99379.09;;;8.72;92.89
77112;BME280;66064;50.226;14.344;2023-06-14T02:12:43;99373.66;;;8.63;93.76
77112;BME280;66064;50.226;14.344;2023-06-14T02:15:10;99375.41;;;8.63;95.67
77112;BME280;66064;50.226;14.344;2023-06-14T02:17:51;99378.97;;;8.65;94.99
77112;BME280;66064;50.226;14.344;2023-06-14T02:20:17;99369.28;;;8.67;96.70
77112;BME280;66064;50.226;14.344;2023-06-14T02:22:44;99384.44;;;8.74;96.73
77112;BME280;66064;50.226;14.344;2023-06-14T02:25:11;99386.19;;;8.72;96.16
77112;BME280;66064;50.226;14.344;2023-06-14T02:27:36;99381.56;;;8.62;96.38
77112;BME280;66064;50.226;14.344;2023-06-14T02:30:03;99386.03;;;8.64;95.98
77112;BME280;66064;50.226;14.344;2023-06-14T02:32:29;99389.63;;;8.66;96.11
77112;BME280;66064;50.226;14.344;2023-06-14T02:34:55;99388.72;;;8.66;96.12
77112;BME280;66064;50.226;14.344;2023-06-14T02:37:21;99387.88;;;8.68;96.61
77112;BME280;66064;50.226;14.344;2023-06-14T02:39:48;99396.66;;;8.64;96.33
77112;BME280;66064;50.226;14.344;2023-06-14T02:42:14;99377.94;;;8.54;95.35
77112;BME280;66064;50.226;14.344;2023-06-14T02:44:40;99395.69;;;8.58;94.92
77112;BME280;66064;50.226;14.344;2023-06-14T02:47:06;99388.50;;;8.51;94.57
77112;BME280;66064;50.226;14.344;2023-06-14T02:49:32;99397.41;;;8.56;95.38
77112;BME280;66064;50.226;14.344;2023-06-14T02:51:58;99403.59;;;8.55;95.46
77112;BME280;66064;50.226;14.344;2023-06-14T02:54:24;99401.84;;;8.57;96.48
77112;BME280;66064;50.226;14.344;2023-06-14T02:56:49;99404.47;;;8.54;95.30
77112;BME280;66064;50.226;14.344;2023-06-14T02:59:16;99414.19;;;8.55;94.87
77112;BME280;66064;50.226;14.344;2023-06-14T03:01:42;99406.31;;;8.58;95.08
77112;BME280;66064;50.226;14.344;2023-06-14T03:04:08;99410.75;;;8.59;95.26
77112;BME280;66064;50.226;14.344;2023-06-14T03:06:35;99410.69;;;8.56;95.18
77112;BME280;66064;50.226;14.344;2023-06-14T03:09:03;99398.19;;;8.49;93.99
77112;BME280;66064;50.226;14.344;2023-06-14T03:11:32;99406.09;;;8.47;93.40
77112;BME280;66064;50.226;14.344;2023-06-14T03:14:00;99407.09;;;8.52;93.42
77112;BME280;66064;50.226;14.344;2023-06-14T03:16:26;99414.97;;;8.49;92.98
77112;BME280;66064;50.226;14.344;2023-06-14T03:18:54;99411.44;;;8.49;93.93
77112;BME280;66064;50.226;14.344;2023-06-14T03:21:20;99413.22;;;8.50;94.21
77112;BME280;66064;50.226;14.344;2023-06-14T03:23:47;99412.34;;;8.51;94.07
77112;BME280;66064;50.226;14.344;2023-06-14T03:26:13;99422.03;;;8.49;94.11
77112;BME280;66064;50.226;14.344;2023-06-14T03:28:41;99422.03;;;8.49;93.90
77112;BME280;66064;50.226;14.344;2023-06-14T03:31:07;99431.84;;;8.53;93.61
77112;BME280;66064;50.226;14.344;2023-06-14T03:33:34;99434.56;;;8.56;94.32
77112;BME280;66064;50.226;14.344;2023-06-14T03:36:01;99431.97;;;8.62;95.26
77112;BME280;66064;50.226;14.344;2023-06-14T03:38:28;99432.13;;;8.71;96.11
77112;BME280;66064;50.226;14.344;2023-06-14T03:40:54;99424.22;;;8.74;95.61
77112;BME280;66064;50.226;14.344;2023-06-14T03:43:19;99415.31;;;8.69;97.00
77112;BME280;66064;50.226;14.344;2023-06-14T03:45:46;99416.31;;;8.75;97.26
77112;BME280;66064;50.226;14.344;2023-06-14T03:48:11;99428.03;;;8.91;97.12
77112;BME280;66064;50.226;14.344;2023-06-14T03:50:37;99416.53;;;8.91;97.13
77112;BME280;66064;50.226;14.344;2023-06-14T03:53:04;99421.03;;;8.98;96.24
77112;BME280;66064;50.226;14.344;2023-06-14T03:55:30;99418.53;;;9.07;95.56
77112;BME280;66064;50.226;14.344;2023-06-14T03:57:57;99423.84;;;9.07;95.65
77112;BME280;66064;50.226;14.344;2023-06-14T04:00:23;99423.94;;;9.15;95.08
77112;BME280;66064;50.226;14.344;2023-06-14T04:02:49;99416.88;;;9.17;95.29
77112;BME280;66064;50.226;14.344;2023-06-14T04:05:15;99421.38;;;9.21;94.15
77112;BME280;66064;50.226;14.344;2023-06-14T04:07:48;99415.25;;;9.28;93.61
77112;BME280;66064;50.226;14.344;2023-06-14T04:10:15;99439.44;;;9.49;93.14
77112;BME280;66064;50.226;14.344;2023-06-14T04:12:42;99426.25;;;9.58;92.40
77112;BME280;66064;50.226;14.344;2023-06-14T04:15:09;99436.25;;;9.80;92.44
77112;BME280;66064;50.226;14.344;2023-06-14T04:17:36;99428.56;;;10.05;91.42
77112;BME280;66064;50.226;14.344;2023-06-14T04:20:03;99426.25;;;10.41;90.63
77112;BME280;66064;50.226;14.344;2023-06-14T04:22:31;99438.16;;;10.84;89.32
77112;BME280;66064;50.226;14.344;2023-06-14T04:24:57;99440.13;;;11.14;88.00
77112;BME280;66064;50.226;14.344;2023-06-14T04:27:23;99435.75;;;11.29;86.03
77112;BME280;66064;50.226;14.344;2023-06-14T04:29:52;99444.94;;;11.90;85.91
77112;BME280;66064;50.226;14.344;2023-06-14T04:32:26;99437.06;;;12.65;81.98
77112;BME280;66064;50.226;14.344;2023-06-14T04:34:53;99438.75;;;13.45;79.60
77112;BME280;66064;50.226;14.344;2023-06-14T04:37:23;99429.41;;;14.26;76.45
77112;BME280;66064;50.226;14.344;2023-06-14T04:39:49;99427.09;;;14.94;73.43
77112;BME280;66064;50.226;14.344;2023-06-14T04:42:16;99423.38;;;15.88;67.54
77112;BME280;66064;50.226;14.344;2023-06-14T04:44:42;99415.69;;;16.24;67.32
77112;BME280;66064;50.226;14.344;2023-06-14T04:47:13;99423.63;;;16.90;65.70
77112;BME280;66064;50.226;14.344;2023-06-14T04:49:40;99421.81;;;17.39;63.76
77112;BME280;66064;50.226;14.344;2023-06-14T04:52:07;99423.91;;;18.11;59.85
77112;BME280;66064;50.226;14.344;2023-06-14T04:54:39;99411.34;;;18.50;57.43
77112;BME280;66064;50.226;14.344;2023-06-14T04:57:28;99405.09;;;18.85;59.15
77112;BME280;66064;50.226;14.344;2023-06-14T04:59:57;99413.22;;;19.52;54.17
77112;BME280;66064;50.226;14.344;2023-06-14T05:02:24;99416.50;;;19.94;53.88
77112;BME280;66064;50.226;14.344;2023-06-14T05:04:50;99419.00;;;20.59;52.29
77112;BME280;66064;50.226;14.344;2023-06-14T05:07:17;99416.59;;;21.03;50.88
77112;BME280;66064;50.226;14.344;2023-06-14T05:09:43;99422.63;;;20.84;49.78
77112;BME280;66064;50.226;14.344;2023-06-14T05:12:09;99420.09;;;21.33;48.37
77112;BME280;66064;50.226;14.344;2023-06-14T05:14:35;99420.38;;;21.25;49.04
77112;BME280;66064;50.226;14.344;2023-06-14T05:17:02;99428.91;;;21.62;48.25
77112;BME280;66064;50.226;14.344;2023-06-14T05:19:28;99426.50;;;21.55;47.94
77112;BME280;66064;50.226;14.344;2023-06-14T05:21:54;99421.78;;;20.56;50.16
77112;BME280;66064;50.226;14.344;2023-06-14T05:24:20;99427.69;;;20.41;51.11
77112;BME280;66064;50.226;14.344;2023-06-14T05:26:46;99422.94;;;21.02;50.03
77112;BME280;66064;50.226;14.344;2023-06-14T05:29:12;99422.59;;;21.87;47.67
77112;BME280;66064;50.226;14.344;2023-06-14T05:31:38;99424.94;;;21.73;46.56
77112;BME280;66064;50.226;14.344;2023-06-14T05:34:04;99421.34;;;21.95;45.54
77112;BME280;66064;50.226;14.344;2023-06-14T05:36:30;99429.56;;;23.28;44.47
77112;BME280;66064;50.226;14.344;2023-06-14T05:38:56;99439.13;;;22.73;43.08
77112;BME280;66064;50.226;14.344;2023-06-14T05:41:28;99434.72;;;23.34;42.85
77112;BME280;66064;50.226;14.344;2023-06-14T05:43:55;99438.31;;;23.95;40.24
77112;BME280;66064;50.226;14.344;2023-06-14T05:46:22;99437.03;;;24.79;39.80
77112;BME280;66064;50.226;14.344;2023-06-14T05:48:51;99434.09;;;25.89;36.70
77112;BME280;66064;50.226;14.344;2023-06-14T05:51:17;99441.72;;;26.79;35.40
77112;BME280;66064;50.226;14.344;2023-06-14T05:53:49;99434.00;;;26.72;34.84
77112;BME280;66064;50.226;14.344;2023-06-14T05:56:16;99435.22;;;25.85;36.69
77112;BME280;66064;50.226;14.344;2023-06-14T05:58:46;99440.84;;;26.63;35.69
77112;BME280;66064;50.226;14.344;2023-06-14T06:01:12;99430.16;;;27.81;34.09
77112;BME280;66064;50.226;14.344;2023-06-14T06:03:39;99433.94;;;28.78;32.94
77112;BME280;66064;50.226;14.344;2023-06-14T06:06:05;99437.81;;;29.30;31.73
77112;BME280;66064;50.226;14.344;2023-06-14T06:08:32;99433.16;;;28.35;32.20
77112;BME280;66064;50.226;14.344;2023-06-14T06:10:59;99455.03;;;26.21;35.89
77112;BME280;66064;50.226;14.344;2023-06-14T06:13:26;99439.69;;;26.52;35.94
77112;BME280;66064;50.226;14.344;2023-06-14T06:15:52;99451.09;;;27.07;34.38
77112;BME280;66064;50.226;14.344;2023-06-14T06:18:17;99452.63;;;26.48;32.81
77112;BME280;66064;50.226;14.344;2023-06-14T06:20:44;99446.78;;;24.66;36.86
77112;BME280;66064;50.226;14.344;2023-06-14T06:23:09;99460.69;;;24.02;39.19
77112;BME280;66064;50.226;14.344;2023-06-14T06:25:35;99471.75;;;23.15;41.75
77112;BME280;66064;50.226;14.344;2023-06-14T06:28:01;99479.97;;;22.91;43.79
77112;BME280;66064;50.226;14.344;2023-06-14T06:30:28;99478.25;;;23.11;42.97
77112;BME280;66064;50.226;14.344;2023-06-14T06:32:53;99481.44;;;22.31;43.92
77112;BME280;66064;50.226;14.344;2023-06-14T06:35:21;99481.00;;;21.71;46.18
77112;BME280;66064;50.226;14.344;2023-06-14T06:37:47;99483.31;;;21.56;46.55
77112;BME280;66064;50.226;14.344;2023-06-14T06:40:13;99479.75;;;21.02;47.00
77112;BME280;66064;50.226;14.344;2023-06-14T06:42:39;99478.09;;;20.98;47.68
77112;BME280;66064;50.226;14.344;2023-06-14T06:45:06;99479.91;;;21.25;47.16
77112;BME280;66064;50.226;14.344;2023-06-14T06:47:32;99480.97;;;20.93;46.72
77112;BME280;66064;50.226;14.344;2023-06-14T06:49:58;99478.94;;;21.00;48.25
77112;BME280;66064;50.226;14.344;2023-06-14T06:52:24;99468.34;;;21.20;47.68
77112;BME280;66064;50.226;14.344;2023-06-14T06:54:50;99478.84;;;23.19;43.43
77112;BME280;66064;50.226;14.344;2023-06-14T06:57:20;99465.88;;;25.19;37.99
77112;BME280;66064;50.226;14.344;2023-06-14T06:59:49;99457.69;;;27.48;35.62
77112;BME280;66064;50.226;14.344;2023-06-14T07:02:16;99471.97;;;28.97;31.29
77112;BME280;66064;50.226;14.344;2023-06-14T07:04:42;99471.31;;;29.87;29.96
77112;BME280;66064;50.226;14.344;2023-06-14T07:07:07;99469.50;;;32.18;27.39
77112;BME280;66064;50.226;14.344;2023-06-14T07:09:35;99464.59;;;34.38;23.47
77112;BME280;66064;50.226;14.344;2023-06-14T07:12:01;99467.31;;;32.90;23.50
77112;BME280;66064;50.226;14.344;2023-06-14T07:14:27;99464.53;;;34.59;22.91
77112;BME280;66064;50.226;14.344;2023-06-14T07:16:54;99467.34;;;35.09;21.97
77112;BME280;66064;50.226;14.344;2023-06-14T07:19:21;99463.84;;;34.67;22.33
77112;BME280;66064;50.226;14.344;2023-06-14T07:21:46;99464.38;;;35.31;21.29
77112;BME280;66064;50.226;14.344;2023-06-14T07:24:13;99469.53;;;36.03;20.60
77112;BME280;66064;50.226;14.344;2023-06-14T07:26:39;99474.22;;;35.24;19.31
77112;BME280;66064;50.226;14.344;2023-06-14T07:29:05;99464.72;;;35.07;20.91
77112;BME280;66064;50.226;14.344;2023-06-14T07:31:31;99470.84;;;32.92;22.03
77112;BME280;66064;50.226;14.344;2023-06-14T07:33:57;99476.25;;;35.03;21.16
77112;BME280;66064;50.226;14.344;2023-06-14T07:36:23;99478.13;;;35.71;20.92
77112;BME280;66064;50.226;14.344;2023-06-14T07:38:49;99480.31;;;34.99;20.87
77112;BME280;66064;50.226;14.344;2023-06-14T07:41:15;99484.84;;;35.79;21.41
77112;BME280;66064;50.226;14.344;2023-06-14T07:43:42;99491.50;;;36.34;20.37
77112;BME280;66064;50.226;14.344;2023-06-14T07:46:08;99488.50;;;38.35;19.27
77112;BME280;66064;50.226;14.344;2023-06-14T07:48:35;99485.16;;;38.75;17.71
77112;BME280;66064;50.226;14.344;2023-06-14T07:51:01;99480.53;;;37.43;18.62
77112;BME280;66064;50.226;14.344;2023-06-14T07:53:27;99484.03;;;36.44;18.90
77112;BME280;66064;50.226;14.344;2023-06-14T07:55:53;99483.25;;;36.61;19.15
77112;BME280;66064;50.226;14.344;2023-06-14T07:58:19;99488.03;;;34.23;20.70
77112;BME280;66064;50.226;14.344;2023-06-14T08:00:45;99492.03;;;33.46;20.99
77112;BME280;66064;50.226;14.344;2023-06-14T08:03:12;99485.63;;;34.91;20.52
77112;BME280;66064;50.226;14.344;2023-06-14T08:05:37;99489.44;;;34.90;21.08
77112;BME280;66064;50.226;14.344;2023-06-14T08:08:04;99494.41;;;35.46;20.47
77112;BME280;66064;50.226;14.344;2023-06-14T08:10:30;99482.94;;;35.98;21.54
77112;BME280;66064;50.226;14.344;2023-06-14T08:12:56;99481.69;;;37.41;19.15
77112;BME280;66064;50.226;14.344;2023-06-14T08:15:21;99486.66;;;38.70;17.94
77112;BME280;66064;50.226;14.344;2023-06-14T08:17:48;99474.97;;;38.92;17.15
77112;BME280;66064;50.226;14.344;2023-06-14T08:20:13;99472.25;;;39.50;16.45
77112;BME280;66064;50.226;14.344;2023-06-14T08:22:43;99478.56;;;39.10;17.27
77112;BME280;66064;50.226;14.344;2023-06-14T08:25:09;99477.88;;;39.75;15.27
77112;BME280;66064;50.226;14.344;2023-06-14T08:27:36;99484.28;;;41.59;14.71
77112;BME280;66064;50.226;14.344;2023-06-14T08:30:06;99477.47;;;39.62;14.80
77112;BME280;66064;50.226;14.344;2023-06-14T08:32:34;99485.16;;;37.88;16.75
77112;BME280;66064;50.226;14.344;2023-06-14T08:34:59;99486.97;;;38.59;17.02
77112;BME280;66064;50.226;14.344;2023-06-14T08:37:26;99480.03;;;34.71;19.09
77112;BME280;66064;50.226;14.344;2023-06-14T08:39:52;99484.34;;;35.45;20.23
77112;BME280;66064;50.226;14.344;2023-06-14T08:42:19;99485.63;;;36.47;20.14
77112;BME280;66064;50.226;14.344;2023-06-14T08:44:46;99479.22;;;37.38;18.08
77112;BME280;66064;50.226;14.344;2023-06-14T08:47:13;99487.78;;;34.78;20.56
77112;BME280;66064;50.226;14.344;2023-06-14T08:49:45;99484.59;;;32.69;22.52
77112;BME280;66064;50.226;14.344;2023-06-14T08:52:13;99494.44;;;30.60;26.41
77112;BME280;66064;50.226;14.344;2023-06-14T08:54:44;99497.75;;;28.66;27.91
77112;BME280;66064;50.226;14.344;2023-06-14T08:57:11;99499.28;;;27.24;30.60
77112;BME280;66064;50.226;14.344;2023-06-14T08:59:50;99496.66;;;29.24;27.55
77112;BME280;66064;50.226;14.344;2023-06-14T09:02:19;99482.72;;;31.32;24.09
77112;BME280;66064;50.226;14.344;2023-06-14T09:04:45;99487.09;;;33.60;21.28
77112;BME280;66064;50.226;14.344;2023-06-14T09:07:12;99489.97;;;34.12;20.67
77112;BME280;66064;50.226;14.344;2023-06-14T09:09:39;99492.19;;;31.27;23.44
77112;BME280;66064;50.226;14.344;2023-06-14T09:12:08;99485.97;;;32.30;22.03
77112;BME280;66064;50.226;14.344;2023-06-14T09:14:36;99497.63;;;29.89;24.86
77112;BME280;66064;50.226;14.344;2023-06-14T09:17:05;99490.41;;;28.52;26.56
77112;BME280;66064;50.226;14.344;2023-06-14T09:19:31;99476.72;;;30.52;24.46
77112;BME280;66064;50.226;14.344;2023-06-14T09:21:57;99500.50;;;29.21;26.11
77112;BME280;66064;50.226;14.344;2023-06-14T09:24:25;99493.81;;;28.42;27.02
77112;BME280;66064;50.226;14.344;2023-06-14T09:26:53;99497.16;;;27.74;28.72
77112;BME280;66064;50.226;14.344;2023-06-14T09:29:19;99489.31;;;28.27;28.90
77112;BME280;66064;50.226;14.344;2023-06-14T09:31:46;99484.84;;;30.53;25.59
77112;BME280;66064;50.226;14.344;2023-06-14T09:34:13;99477.66;;;31.73;23.56
77112;BME280;66064;50.226;14.344;2023-06-14T09:36:39;99493.91;;;29.90;24.96
77112;BME280;66064;50.226;14.344;2023-06-14T09:39:06;99492.44;;;28.06;26.20
77112;BME280;66064;50.226;14.344;2023-06-14T09:41:38;99487.75;;;27.78;28.42
77112;BME280;66064;50.226;14.344;2023-06-14T09:44:06;99504.75;;;25.23;30.71
77112;BME280;66064;50.226;14.344;2023-06-14T09:46:33;99498.66;;;25.18;32.83
77112;BME280;66064;50.226;14.344;2023-06-14T09:49:01;99490.22;;;26.10;33.74
77112;BME280;66064;50.226;14.344;2023-06-14T09:51:28;99490.31;;;26.24;31.76
77112;BME280;66064;50.226;14.344;2023-06-14T09:54:00;99499.06;;;25.63;33.93
77112;BME280;66064;50.226;14.344;2023-06-14T09:56:48;99484.03;;;27.04;31.43
77112;BME280;66064;50.226;14.344;2023-06-14T09:59:19;99487.50;;;27.97;29.61
77112;BME280;66064;50.226;14.344;2023-06-14T10:01:48;99477.50;;;28.26;28.39
77112;BME280;66064;50.226;14.344;2023-06-14T10:04:15;99478.94;;;29.03;27.41
77112;BME280;66064;50.226;14.344;2023-06-14T10:06:45;99469.44;;;28.94;25.75
77112;BME280;66064;50.226;14.344;2023-06-14T10:09:12;99469.41;;;29.08;24.15
77112;BME280;66064;50.226;14.344;2023-06-14T10:11:38;99465.75;;;30.39;24.49
77112;BME280;66064;50.226;14.344;2023-06-14T10:14:10;99451.78;;;32.55;25.03
77112;BME280;66064;50.226;14.344;2023-06-14T10:16:45;99455.94;;;32.39;22.66
77112;BME280;66064;50.226;14.344;2023-06-14T10:19:21;99462.31;;;31.82;22.00
77112;BME280;66064;50.226;14.344;2023-06-14T10:24:43;99466.53;;;30.16;23.39
77112;BME280;66064;50.226;14.344;2023-06-14T10:27:13;99467.31;;;28.71;26.73
77112;BME280;66064;50.226;14.344;2023-06-14T10:32:25;99467.97;;;26.82;29.00
77112;BME280;66064;50.226;14.344;2023-06-14T10:34:53;99462.16;;;27.20;29.27
77112;BME280;66064;50.226;14.344;2023-06-14T10:37:20;99460.66;;;26.18;31.59
77112;BME280;66064;50.226;14.344;2023-06-14T10:39:46;99467.78;;;25.88;32.12
77112;BME280;66064;50.226;14.344;2023-06-14T10:42:13;99457.56;;;25.22;31.79
77112;BME280;66064;50.226;14.344;2023-06-14T10:44:41;99454.16;;;27.01;31.82
77112;BME280;66064;50.226;14.344;2023-06-14T10:47:10;99452.06;;;28.67;29.32
77112;BME280;66064;50.226;14.344;2023-06-14T10:49:50;99445.88;;;30.10;26.87
77112;BME280;66064;50.226;14.344;2023-06-14T10:52:20;99455.44;;;31.28;26.60
77112;BME280;66064;50.226;14.344;2023-06-14T10:57:25;99444.00;;;30.49;23.82
77112;BME280;66064;50.226;14.344;2023-06-14T10:59:51;99434.91;;;30.85;21.56
77112;BME280;66064;50.226;14.344;2023-06-14T11:05:24;99445.38;;;28.99;27.80
77112;BME280;66064;50.226;14.344;2023-06-14T11:08:10;99456.06;;;27.76;28.42
77112;BME280;66064;50.226;14.344;2023-06-14T11:10:43;99450.19;;;26.75;29.90
77112;BME280;66064;50.226;14.344;2023-06-14T11:13:09;99450.69;;;26.17;32.15
77112;BME280;66064;50.226;14.344;2023-06-14T11:15:37;99460.03;;;25.09;32.94
77112;BME280;66064;50.226;14.344;2023-06-14T11:18:07;99451.41;;;24.64;32.57
77112;BME280;66064;50.226;14.344;2023-06-14T11:20:36;99456.06;;;24.23;34.23
77112;BME280;66064;50.226;14.344;2023-06-14T11:23:03;99457.16;;;23.59;34.47
77112;BME280;66064;50.226;14.344;2023-06-14T11:25:29;99463.25;;;23.44;36.86
77112;BME280;66064;50.226;14.344;2023-06-14T11:27:56;99463.44;;;22.97;35.64
77112;BME280;66064;50.226;14.344;2023-06-14T11:30:23;99474.00;;;23.25;36.30
77112;BME280;66064;50.226;14.344;2023-06-14T11:32:50;99468.88;;;23.39;36.99
77112;BME280;66064;50.226;14.344;2023-06-14T11:35:18;99453.28;;;23.02;36.66
77112;BME280;66064;50.226;14.344;2023-06-14T11:37:45;99463.91;;;23.29;36.49
77112;BME280;66064;50.226;14.344;2023-06-14T11:40:12;99465.31;;;22.95;36.63
77112;BME280;66064;50.226;14.344;2023-06-14T11:42:40;99466.09;;;22.77;36.60
77112;BME280;66064;50.226;14.344;2023-06-14T11:45:10;99461.28;;;23.06;38.07
77112;BME280;66064;50.226;14.344;2023-06-14T11:47:38;99456.97;;;23.22;37.25
77112;BME280;66064;50.226;14.344;2023-06-14T11:50:06;99459.78;;;22.98;36.67
77112;BME280;66064;50.226;14.344;2023-06-14T11:52:36;99460.53;;;22.80;36.09
77112;BME280;66064;50.226;14.344;2023-06-14T11:55:02;99457.81;;;22.80;35.98
77112;BME280;66064;50.226;14.344;2023-06-14T11:57:35;99457.59;;;22.63;33.98
77112;BME280;66064;50.226;14.344;2023-06-14T12:00:06;99446.22;;;22.75;36.12
77112;BME280;66064;50.226;14.344;2023-06-14T12:02:41;99443.75;;;22.92;38.26
77112;BME280;66064;50.226;14.344;2023-06-14T12:05:08;99443.44;;;23.00;34.87
77112;BME280;66064;50.226;14.344;2023-06-14T12:07:39;99436.84;;;22.62;35.11
77112;BME280;66064;50.226;14.344;2023-06-14T12:10:09;99440.81;;;23.19;34.89
77112;BME280;66064;50.226;14.344;2023-06-14T12:12:38;99433.03;;;23.31;34.49
77112;BME280;66064;50.226;14.344;2023-06-14T12:15:05;99423.88;;;23.75;32.29
77112;BME280;66064;50.226;14.344;2023-06-14T12:17:33;99427.16;;;23.62;30.84
77112;BME280;66064;50.226;14.344;2023-06-14T12:20:08;99422.22;;;23.52;33.80
77112;BME280;66064;50.226;14.344;2023-06-14T12:22:56;99416.22;;;23.64;32.56
77112;BME280;66064;50.226;14.344;2023-06-14T12:25:35;99426.75;;;23.51;30.48
77112;BME280;66064;50.226;14.344;2023-06-14T12:28:08;99417.56;;;23.33;31.44
77112;BME280;66064;50.226;14.344;2023-06-14T12:30:37;99416.41;;;23.80;30.17
77112;BME280;66064;50.226;14.344;2023-06-14T12:33:04;99416.47;;;24.17;33.51
77112;BME280;66064;50.226;14.344;2023-06-14T12:35:31;99413.66;;;24.00;29.54
77112;BME280;66064;50.226;14.344;2023-06-14T12:37:57;99424.38;;;23.01;30.71
77112;BME280;66064;50.226;14.344;2023-06-14T12:40:23;99407.38;;;23.59;34.17
77112;BME280;66064;50.226;14.344;2023-06-14T12:42:49;99412.28;;;23.09;31.63
77112;BME280;66064;50.226;14.344;2023-06-14T12:45:15;99416.38;;;23.19;32.81
77112;BME280;66064;50.226;14.344;2023-06-14T12:47:42;99409.38;;;23.13;32.35
77112;BME280;66064;50.226;14.344;2023-06-14T12:50:08;99407.56;;;23.54;31.35
77112;BME280;66064;50.226;14.344;2023-06-14T12:52:34;99408.75;;;23.88;33.03
77112;BME280;66064;50.226;14.344;2023-06-14T12:55:04;99407.56;;;23.75;31.38
77112;BME280;66064;50.226;14.344;2023-06-14T12:57:31;99402.16;;;23.93;31.02
77112;BME280;66064;50.226;14.344;2023-06-14T12:59:57;99391.72;;;24.03;32.12
77112;BME280;66064;50.226;14.344;2023-06-14T13:02:23;99401.97;;;23.98;30.69
77112;BME280;66064;50.226;14.344;2023-06-14T13:04:50;99400.06;;;23.61;31.96
77112;BME280;66064;50.226;14.344;2023-06-14T13:07:16;99407.81;;;23.70;32.73